sensor_id;sensor_type;location;lat;lon;timestamp;temperature;humidity
65692;DHT22;52411;52.716;6.696;2023-04-03T00:01:01;2.60;99.90
65692;DHT22;52411;52.716;6.696;2023-04-03T00:03:27;2.60;99.90
65692;DHT22;52411;52.716;6.696;2023-04-03T00:05:53;2.60;99.90
65692;DHT22;52411;52.716;6.696;2023-04-03T00:08:19;2.60;99.90
65692;DHT22;52411;52.716;6.696;2023-04-03T00:10:44;2.60;99.90
65692;DHT22;52411;52.716;6.696;2023-04-03T00:13:10;2.60;99.90
65692;DHT22;52411;52.716;6.696;2023-04-03T00:15:37;2.50;99.90
65692;DHT22;52411;52.716;6.696;2023-04-03T00:18:03;2.50;99.90
65692;DHT22;52411;52.716;6.696;2023-04-03T00:20:29;2.40;99.90
65692;DHT22;52411;52.716;6.696;2023-04-03T00:22:55;2.50;99.90
65692;DHT22;52411;52.716;6.696;2023-04-03T00:25:21;2.40;99.90
65692;DHT22;52411;52.716;6.696;2023-04-03T00:27:46;2.40;99.90
65692;DHT22;52411;52.716;6.696;2023-04-03T00:30:15;2.40;99.90
65692;DHT22;52411;52.716;6.696;2023-04-03T00:32:41;2.40;99.90
65692;DHT22;52411;52.716;6.696;2023-04-03T00:35:08;2.40;99.90
65692;DHT22;52411;52.716;6.696;2023-04-03T00:37:34;2.40;99.90
65692;DHT22;52411;52.716;6.696;2023-04-03T00:40:00;2.30;99.90
65692;DHT22;52411;52.716;6.696;2023-04-03T00:42:25;2.30;99.90
65692;DHT22;52411;52.716;6.696;2023-04-03T00:47:23;2.20;99.90
65692;DHT22;52411;52.716;6.696;2023-04-03T00:49:50;2.20;99.90
65692;DHT22;52411;52.716;6.696;2023-04-03T00:52:20;2.20;99.90
65692;DHT22;52411;52.716;6.696;2023-04-03T00:54:47;2.20;99.90
65692;DHT22;52411;52.716;6.696;2023-04-03T00:57:15;2.20;99.90
65692;DHT22;52411;52.716;6.696;2023-04-03T00:59:48;2.20;99.90
65692;DHT22;52411;52.716;6.696;2023-04-03T01:02:15;2.20;99.90
65692;DHT22;52411;52.716;6.696;2023-04-03T01:04:43;2.20;99.90
65692;DHT22;52411;52.716;6.696;2023-04-03T01:07:30;2.20;99.90
65692;DHT22;52411;52.716;6.696;2023-04-03T01:09:58;2.10;99.90
65692;DHT22;52411;52.716;6.696;2023-04-03T01:12:29;2.10;99.90
65692;DHT22;52411;52.716;6.696;2023-04-03T01:15:01;2.10;99.90
65692;DHT22;52411;52.716;6.696;2023-04-03T01:17:37;2.10;99.90
65692;DHT22;52411;52.716;6.696;2023-04-03T01:20:28;2.00;99.90
65692;DHT22;52411;52.716;6.696;2023-04-03T01:25:35;2.00;99.90
65692;DHT22;52411;52.716;6.696;2023-04-03T01:28:06;2.00;99.90
65692;DHT22;52411;52.716;6.696;2023-04-03T01:30:35;2.00;99.90
65692;DHT22;52411;52.716;6.696;2023-04-03T01:33:02;1.90;99.90
65692;DHT22;52411;52.716;6.696;2023-04-03T01:35:28;1.90;99.90
65692;DHT22;52411;52.716;6.696;2023-04-03T01:37:54;1.90;99.90
65692;DHT22;52411;52.716;6.696;2023-04-03T01:40:19;1.90;99.90
65692;DHT22;52411;52.716;6.696;2023-04-03T01:42:45;1.90;99.90
65692;DHT22;52411;52.716;6.696;2023-04-03T01:45:11;1.90;99.90
65692;DHT22;52411;52.716;6.696;2023-04-03T01:47:36;1.80;99.90
65692;DHT22;52411;52.716;6.696;2023-04-03T01:50:02;1.80;99.90
65692;DHT22;52411;52.716;6.696;2023-04-03T01:52:27;1.80;99.90
65692;DHT22;52411;52.716;6.696;2023-04-03T01:54:53;1.70;99.90
65692;DHT22;52411;52.716;6.696;2023-04-03T01:57:18;1.70;99.90
65692;DHT22;52411;52.716;6.696;2023-04-03T01:59:44;1.70;99.90
65692;DHT22;52411;52.716;6.696;2023-04-03T02:02:10;1.70;99.90
65692;DHT22;52411;52.716;6.696;2023-04-03T02:04:37;1.70;99.90
65692;DHT22;52411;52.716;6.696;2023-04-03T02:07:03;1.70;99.90
65692;DHT22;52411;52.716;6.696;2023-04-03T02:09:29;1.60;99.90
65692;DHT22;52411;52.716;6.696;2023-04-03T02:11:54;1.60;99.90
65692;DHT22;52411;52.716;6.696;2023-04-03T02:14:20;1.60;99.90
65692;DHT22;52411;52.716;6.696;2023-04-03T02:16:47;1.60;99.90
65692;DHT22;52411;52.716;6.696;2023-04-03T02:19:12;1.60;99.90
65692;DHT22;52411;52.716;6.696;2023-04-03T02:21:38;1.60;99.90
65692;DHT22;52411;52.716;6.696;2023-04-03T02:24:04;1.60;99.90
65692;DHT22;52411;52.716;6.696;2023-04-03T02:26:30;1.50;99.90
65692;DHT22;52411;52.716;6.696;2023-04-03T02:28:56;1.50;99.90
65692;DHT22;52411;52.716;6.696;2023-04-03T02:31:21;1.40;99.90
65692;DHT22;52411;52.716;6.696;2023-04-03T02:33:50;1.40;99.90
65692;DHT22;52411;52.716;6.696;2023-04-03T02:36:16;1.40;99.90
65692;DHT22;52411;52.716;6.696;2023-04-03T02:38:42;1.30;99.90
65692;DHT22;52411;52.716;6.696;2023-04-03T02:41:10;1.30;99.90
65692;DHT22;52411;52.716;6.696;2023-04-03T02:43:36;1.30;99.90
65692;DHT22;52411;52.716;6.696;2023-04-03T02:46:02;1.30;99.90
65692;DHT22;52411;52.716;6.696;2023-04-03T02:48:27;1.20;99.90
65692;DHT22;52411;52.716;6.696;2023-04-03T02:50:53;1.20;99.90
65692;DHT22;52411;52.716;6.696;2023-04-03T02:53:19;1.20;99.90
65692;DHT22;52411;52.716;6.696;2023-04-03T02:55:45;1.20;99.90
65692;DHT22;52411;52.716;6.696;2023-04-03T02:58:11;1.10;99.90
65692;DHT22;52411;52.716;6.696;2023-04-03T03:00:37;1.10;99.90
65692;DHT22;52411;52.716;6.696;2023-04-03T03:03:02;1.10;99.90
65692;DHT22;52411;52.716;6.696;2023-04-03T03:05:28;1.00;99.90
65692;DHT22;52411;52.716;6.696;2023-04-03T03:07:54;1.00;99.90
65692;DHT22;52411;52.716;6.696;2023-04-03T03:10:20;1.00;99.90
65692;DHT22;52411;52.716;6.696;2023-04-03T03:12:45;0.90;99.90
65692;DHT22;52411;52.716;6.696;2023-04-03T03:15:11;0.80;99.90
65692;DHT22;52411;52.716;6.696;2023-04-03T03:17:37;0.70;99.90
65692;DHT22;52411;52.716;6.696;2023-04-03T03:20:04;0.70;99.90
65692;DHT22;52411;52.716;6.696;2023-04-03T03:22:30;0.60;99.90
65692;DHT22;52411;52.716;6.696;2023-04-03T03:24:56;0.60;99.90
65692;DHT22;52411;52.716;6.696;2023-04-03T03:27:21;0.70;99.90
65692;DHT22;52411;52.716;6.696;2023-04-03T03:29:47;0.70;99.90
65692;DHT22;52411;52.716;6.696;2023-04-03T03:32:13;0.70;99.90
65692;DHT22;52411;52.716;6.696;2023-04-03T03:34:38;0.70;99.90
65692;DHT22;52411;52.716;6.696;2023-04-03T03:37:04;0.50;99.90
65692;DHT22;52411;52.716;6.696;2023-04-03T03:39:30;0.50;99.90
65692;DHT22;52411;52.716;6.696;2023-04-03T03:41:55;0.50;99.90
65692;DHT22;52411;52.716;6.696;2023-04-03T03:44:21;0.50;99.90
65692;DHT22;52411;52.716;6.696;2023-04-03T03:46:47;0.40;99.90
65692;DHT22;52411;52.716;6.696;2023-04-03T03:49:12;0.30;99.90
65692;DHT22;52411;52.716;6.696;2023-04-03T03:51:39;0.30;99.90
65692;DHT22;52411;52.716;6.696;2023-04-03T03:54:05;0.30;99.90
65692;DHT22;52411;52.716;6.696;2023-04-03T03:56:31;0.30;99.90
65692;DHT22;52411;52.716;6.696;2023-04-03T03:58:57;0.30;99.90
65692;DHT22;52411;52.716;6.696;2023-04-03T04:01:24;0.30;99.90
65692;DHT22;52411;52.716;6.696;2023-04-03T04:03:50;0.30;99.90
65692;DHT22;52411;52.716;6.696;2023-04-03T04:06:15;0.30;99.90
65692;DHT22;52411;52.716;6.696;2023-04-03T04:08:41;0.20;99.90
65692;DHT22;52411;52.716;6.696;2023-04-03T04:11:07;0.30;99.90
65692;DHT22;52411;52.716;6.696;2023-04-03T04:13:33;0.30;99.90
65692;DHT22;52411;52.716;6.696;2023-04-03T04:15:59;0.30;99.90
65692;DHT22;52411;52.716;6.696;2023-04-03T04:18:25;0.30;99.90
65692;DHT22;52411;52.716;6.696;2023-04-03T04:20:51;0.30;99.90
65692;DHT22;52411;52.716;6.696;2023-04-03T04:23:17;0.30;99.90
65692;DHT22;52411;52.716;6.696;2023-04-03T04:25:47;0.30;99.90
65692;DHT22;52411;52.716;6.696;2023-04-03T04:28:13;0.20;99.90
65692;DHT22;52411;52.716;6.696;2023-04-03T04:30:39;0.20;99.90
65692;DHT22;52411;52.716;6.696;2023-04-03T04:33:05;0.30;99.90
65692;DHT22;52411;52.716;6.696;2023-04-03T04:35:30;0.30;99.90
65692;DHT22;52411;52.716;6.696;2023-04-03T04:37:56;0.20;99.90
65692;DHT22;52411;52.716;6.696;2023-04-03T04:40:22;0.20;99.90
65692;DHT22;52411;52.716;6.696;2023-04-03T04:42:47;0.20;99.90
65692;DHT22;52411;52.716;6.696;2023-04-03T04:45:13;0.20;99.90
65692;DHT22;52411;52.716;6.696;2023-04-03T04:47:40;0.10;99.90
65692;DHT22;52411;52.716;6.696;2023-04-03T04:50:06;0.10;99.90
65692;DHT22;52411;52.716;6.696;2023-04-03T04:52:32;0.00;99.90
65692;DHT22;52411;52.716;6.696;2023-04-03T04:54:57;0.00;99.90
65692;DHT22;52411;52.716;6.696;2023-04-03T04:57:23;-0.10;99.90
65692;DHT22;52411;52.716;6.696;2023-04-03T04:59:49;-0.20;99.90
65692;DHT22;52411;52.716;6.696;2023-04-03T05:02:14;-0.20;99.90
65692;DHT22;52411;52.716;6.696;2023-04-03T05:04:40;-0.20;99.90
65692;DHT22;52411;52.716;6.696;2023-04-03T05:07:06;-0.30;99.90
65692;DHT22;52411;52.716;6.696;2023-04-03T05:09:31;-0.30;99.90
65692;DHT22;52411;52.716;6.696;2023-04-03T05:11:57;-0.30;99.90
65692;DHT22;52411;52.716;6.696;2023-04-03T05:14:25;-0.20;99.90
65692;DHT22;52411;52.716;6.696;2023-04-03T05:16:50;-0.10;99.90
65692;DHT22;52411;52.716;6.696;2023-04-03T05:19:20;-0.10;99.90
65692;DHT22;52411;52.716;6.696;2023-04-03T05:21:46;-0.10;99.90
65692;DHT22;52411;52.716;6.696;2023-04-03T05:24:12;-0.10;99.90
65692;DHT22;52411;52.716;6.696;2023-04-03T05:26:37;-0.10;99.90
65692;DHT22;52411;52.716;6.696;2023-04-03T05:29:03;-0.10;99.90
65692;DHT22;52411;52.716;6.696;2023-04-03T05:31:29;-0.10;99.90
65692;DHT22;52411;52.716;6.696;2023-04-03T05:33:55;0.00;99.90
65692;DHT22;52411;52.716;6.696;2023-04-03T05:36:21;0.00;99.90
65692;DHT22;52411;52.716;6.696;2023-04-03T05:38:48;0.10;99.90
65692;DHT22;52411;52.716;6.696;2023-04-03T05:41:15;0.00;99.90
65692;DHT22;52411;52.716;6.696;2023-04-03T05:43:41;0.10;99.90
65692;DHT22;52411;52.716;6.696;2023-04-03T05:46:19;0.20;99.90
65692;DHT22;52411;52.716;6.696;2023-04-03T05:48:46;0.20;99.90
65692;DHT22;52411;52.716;6.696;2023-04-03T05:51:17;0.30;99.90
65692;DHT22;52411;52.716;6.696;2023-04-03T05:53:43;0.30;99.90
65692;DHT22;52411;52.716;6.696;2023-04-03T05:56:10;0.30;99.90
65692;DHT22;52411;52.716;6.696;2023-04-03T05:58:36;0.40;99.90
65692;DHT22;52411;52.716;6.696;2023-04-03T06:01:02;0.50;99.90
65692;DHT22;52411;52.716;6.696;2023-04-03T06:03:27;0.60;99.90
65692;DHT22;52411;52.716;6.696;2023-04-03T06:05:53;0.70;99.90
65692;DHT22;52411;52.716;6.696;2023-04-03T06:08:18;0.70;99.90
65692;DHT22;52411;52.716;6.696;2023-04-03T06:10:44;0.80;99.90
65692;DHT22;52411;52.716;6.696;2023-04-03T06:13:11;0.80;99.90
65692;DHT22;52411;52.716;6.696;2023-04-03T06:15:37;0.90;99.90
65692;DHT22;52411;52.716;6.696;2023-04-03T06:18:03;1.00;99.90
65692;DHT22;52411;52.716;6.696;2023-04-03T06:20:29;1.00;99.90
65692;DHT22;52411;52.716;6.696;2023-04-03T06:22:54;1.10;99.90
65692;DHT22;52411;52.716;6.696;2023-04-03T06:25:20;1.10;99.90
65692;DHT22;52411;52.716;6.696;2023-04-03T06:27:46;1.10;99.90
65692;DHT22;52411;52.716;6.696;2023-04-03T06:30:12;1.20;99.90
65692;DHT22;52411;52.716;6.696;2023-04-03T06:32:38;1.20;99.90
65692;DHT22;52411;52.716;6.696;2023-04-03T06:35:05;1.30;99.90
65692;DHT22;52411;52.716;6.696;2023-04-03T06:37:31;1.30;99.90
65692;DHT22;52411;52.716;6.696;2023-04-03T06:39:58;1.40;99.90
65692;DHT22;52411;52.716;6.696;2023-04-03T06:42:24;1.40;99.90
65692;DHT22;52411;52.716;6.696;2023-04-03T06:44:49;1.50;99.90
65692;DHT22;52411;52.716;6.696;2023-04-03T06:47:16;1.50;99.90
65692;DHT22;52411;52.716;6.696;2023-04-03T06:49:42;1.60;99.90
65692;DHT22;52411;52.716;6.696;2023-04-03T06:52:08;1.70;99.90
65692;DHT22;52411;52.716;6.696;2023-04-03T06:54:34;1.80;99.90
65692;DHT22;52411;52.716;6.696;2023-04-03T06:57:00;1.80;99.90
65692;DHT22;52411;52.716;6.696;2023-04-03T06:59:26;1.90;99.90
65692;DHT22;52411;52.716;6.696;2023-04-03T07:01:52;1.90;99.90
65692;DHT22;52411;52.716;6.696;2023-04-03T07:04:17;2.00;99.90
65692;DHT22;52411;52.716;6.696;2023-04-03T07:06:45;2.00;99.90
65692;DHT22;52411;52.716;6.696;2023-04-03T07:09:14;2.10;99.90
65692;DHT22;52411;52.716;6.696;2023-04-03T07:11:40;2.20;99.90
65692;DHT22;52411;52.716;6.696;2023-04-03T07:14:06;2.20;99.90
65692;DHT22;52411;52.716;6.696;2023-04-03T07:16:33;2.30;99.90
65692;DHT22;52411;52.716;6.696;2023-04-03T07:18:59;2.40;99.90
65692;DHT22;52411;52.716;6.696;2023-04-03T07:21:25;2.50;99.90
65692;DHT22;52411;52.716;6.696;2023-04-03T07:23:51;2.50;99.90
65692;DHT22;52411;52.716;6.696;2023-04-03T07:26:17;2.60;99.90
65692;DHT22;52411;52.716;6.696;2023-04-03T07:28:43;2.70;99.90
65692;DHT22;52411;52.716;6.696;2023-04-03T07:31:13;2.80;99.90
65692;DHT22;52411;52.716;6.696;2023-04-03T07:33:39;2.80;99.90
65692;DHT22;52411;52.716;6.696;2023-04-03T07:36:06;2.90;99.90
65692;DHT22;52411;52.716;6.696;2023-04-03T07:38:33;3.00;99.90
65692;DHT22;52411;52.716;6.696;2023-04-03T07:40:59;3.10;99.90
65692;DHT22;52411;52.716;6.696;2023-04-03T07:43:24;3.20;99.90
65692;DHT22;52411;52.716;6.696;2023-04-03T07:45:51;3.30;99.90
65692;DHT22;52411;52.716;6.696;2023-04-03T07:48:18;3.30;99.90
65692;DHT22;52411;52.716;6.696;2023-04-03T07:50:45;3.40;99.90
65692;DHT22;52411;52.716;6.696;2023-04-03T07:53:11;3.40;99.90
65692;DHT22;52411;52.716;6.696;2023-04-03T07:55:37;3.50;99.90
65692;DHT22;52411;52.716;6.696;2023-04-03T07:58:11;3.50;99.90
65692;DHT22;52411;52.716;6.696;2023-04-03T08:00:37;3.70;99.90
65692;DHT22;52411;52.716;6.696;2023-04-03T08:03:04;3.80;99.90
65692;DHT22;52411;52.716;6.696;2023-04-03T08:05:34;3.80;99.90
65692;DHT22;52411;52.716;6.696;2023-04-03T08:08:01;3.90;99.90
65692;DHT22;52411;52.716;6.696;2023-04-03T08:10:26;3.90;99.90
65692;DHT22;52411;52.716;6.696;2023-04-03T08:12:55;4.00;99.90
65692;DHT22;52411;52.716;6.696;2023-04-03T08:15:20;4.10;99.90
65692;DHT22;52411;52.716;6.696;2023-04-03T08:17:46;4.10;99.90
65692;DHT22;52411;52.716;6.696;2023-04-03T08:20:11;4.20;99.90
65692;DHT22;52411;52.716;6.696;2023-04-03T08:22:37;4.20;99.90
65692;DHT22;52411;52.716;6.696;2023-04-03T08:25:03;4.30;99.90
65692;DHT22;52411;52.716;6.696;2023-04-03T08:27:29;4.30;99.90
65692;DHT22;52411;52.716;6.696;2023-04-03T08:29:55;4.40;99.90
65692;DHT22;52411;52.716;6.696;2023-04-03T08:32:22;4.40;99.90
65692;DHT22;52411;52.716;6.696;2023-04-03T08:34:48;4.50;99.90
65692;DHT22;52411;52.716;6.696;2023-04-03T08:37:14;4.60;99.90
65692;DHT22;52411;52.716;6.696;2023-04-03T08:39:41;4.70;99.90
65692;DHT22;52411;52.716;6.696;2023-04-03T08:45:16;4.80;99.90
65692;DHT22;52411;52.716;6.696;2023-04-03T08:48:13;4.90;99.90
65692;DHT22;52411;52.716;6.696;2023-04-03T08:50:43;5.00;99.90
65692;DHT22;52411;52.716;6.696;2023-04-03T08:53:16;5.10;99.90
65692;DHT22;52411;52.716;6.696;2023-04-03T08:55:50;5.20;99.90
65692;DHT22;52411;52.716;6.696;2023-04-03T08:58:22;5.30;99.90
65692;DHT22;52411;52.716;6.696;2023-04-03T09:00:55;5.30;99.90
65692;DHT22;52411;52.716;6.696;2023-04-03T09:03:23;5.30;99.90
65692;DHT22;52411;52.716;6.696;2023-04-03T09:05:54;5.40;99.90
65692;DHT22;52411;52.716;6.696;2023-04-03T09:08:24;5.40;99.90
65692;DHT22;52411;52.716;6.696;2023-04-03T09:11:14;5.50;99.90
65692;DHT22;52411;52.716;6.696;2023-04-03T09:14:01;5.60;99.70
65692;DHT22;52411;52.716;6.696;2023-04-03T09:16:49;5.80;99.90
65692;DHT22;52411;52.716;6.696;2023-04-03T09:24:47;5.90;98.90
65692;DHT22;52411;52.716;6.696;2023-04-03T09:27:14;6.00;99.00
65692;DHT22;52411;52.716;6.696;2023-04-03T09:29:41;6.00;99.90
65692;DHT22;52411;52.716;6.696;2023-04-03T09:32:33;6.00;99.90
65692;DHT22;52411;52.716;6.696;2023-04-03T09:35:01;6.10;96.60
65692;DHT22;52411;52.716;6.696;2023-04-03T09:37:49;6.10;98.90
65692;DHT22;52411;52.716;6.696;2023-04-03T09:42:53;6.20;97.80
65692;DHT22;52411;52.716;6.696;2023-04-03T09:48:17;6.30;99.40
65692;DHT22;52411;52.716;6.696;2023-04-03T09:50:57;6.30;91.60
65692;DHT22;52411;52.716;6.696;2023-04-03T09:53:39;6.30;97.90
65692;DHT22;52411;52.716;6.696;2023-04-03T09:58:49;6.50;97.60
65692;DHT22;52411;52.716;6.696;2023-04-03T10:01:28;6.60;98.70
65692;DHT22;52411;52.716;6.696;2023-04-03T10:04:15;6.70;97.80
65692;DHT22;52411;52.716;6.696;2023-04-03T10:06:51;6.70;91.00
65692;DHT22;52411;52.716;6.696;2023-04-03T10:09:28;6.70;96.10
65692;DHT22;52411;52.716;6.696;2023-04-03T10:12:06;6.90;96.50
65692;DHT22;52411;52.716;6.696;2023-04-03T10:14:35;6.90;94.60
65692;DHT22;52411;52.716;6.696;2023-04-03T10:17:20;6.90;92.80
65692;DHT22;52411;52.716;6.696;2023-04-03T10:22:47;7.00;96.60
65692;DHT22;52411;52.716;6.696;2023-04-03T10:25:21;7.10;94.10
65692;DHT22;52411;52.716;6.696;2023-04-03T10:28:03;7.20;96.50
65692;DHT22;52411;52.716;6.696;2023-04-03T10:33:27;7.30;92.20
65692;DHT22;52411;52.716;6.696;2023-04-03T10:41:39;7.60;94.80
65692;DHT22;52411;52.716;6.696;2023-04-03T10:46:49;7.70;94.30
65692;DHT22;52411;52.716;6.696;2023-04-03T10:52:07;7.90;90.90
65692;DHT22;52411;52.716;6.696;2023-04-03T10:54:42;8.00;90.80
65692;DHT22;52411;52.716;6.696;2023-04-03T10:57:10;8.10;94.70
65692;DHT22;52411;52.716;6.696;2023-04-03T10:59:43;8.20;92.30
65692;DHT22;52411;52.716;6.696;2023-04-03T11:02:18;8.20;92.80
65692;DHT22;52411;52.716;6.696;2023-04-03T11:04:51;8.30;92.40
65692;DHT22;52411;52.716;6.696;2023-04-03T11:07:21;8.40;94.40
65692;DHT22;52411;52.716;6.696;2023-04-03T11:09:52;8.50;93.80
65692;DHT22;52411;52.716;6.696;2023-04-03T11:14:50;8.50;94.40
65692;DHT22;52411;52.716;6.696;2023-04-03T11:22:48;8.90;95.10
65692;DHT22;52411;52.716;6.696;2023-04-03T11:25:24;8.60;79.80
65692;DHT22;52411;52.716;6.696;2023-04-03T11:27:54;8.60;88.90
65692;DHT22;52411;52.716;6.696;2023-04-03T11:36:14;9.00;91.60
65692;DHT22;52411;52.716;6.696;2023-04-03T11:38:46;8.90;81.90
65692;DHT22;52411;52.716;6.696;2023-04-03T11:41:13;9.00;94.10
65692;DHT22;52411;52.716;6.696;2023-04-03T11:43:42;8.90;88.50
65692;DHT22;52411;52.716;6.696;2023-04-03T11:46:20;8.90;89.00
65692;DHT22;52411;52.716;6.696;2023-04-03T11:48:47;8.80;90.10
65692;DHT22;52411;52.716;6.696;2023-04-03T11:53:42;8.80;87.40
65692;DHT22;52411;52.716;6.696;2023-04-03T12:01:53;9.20;90.30
65692;DHT22;52411;52.716;6.696;2023-04-03T12:04:21;9.30;89.50
65692;DHT22;52411;52.716;6.696;2023-04-03T12:15:11;9.50;86.50
65692;DHT22;52411;52.716;6.696;2023-04-03T12:17:37;9.60;83.80
65692;DHT22;52411;52.716;6.696;2023-04-03T12:20:46;9.50;90.10
65692;DHT22;52411;52.716;6.696;2023-04-03T12:23:28;9.70;86.20
65692;DHT22;52411;52.716;6.696;2023-04-03T12:26:03;9.70;89.00
65692;DHT22;52411;52.716;6.696;2023-04-03T12:28:35;9.50;70.40
65692;DHT22;52411;52.716;6.696;2023-04-03T12:31:01;9.50;82.20
65692;DHT22;52411;52.716;6.696;2023-04-03T12:34:00;9.60;79.60
65692;DHT22;52411;52.716;6.696;2023-04-03T12:36:46;9.60;81.50
65692;DHT22;52411;52.716;6.696;2023-04-03T12:39:34;9.70;85.80
65692;DHT22;52411;52.716;6.696;2023-04-03T12:42:29;9.90;90.40
65692;DHT22;52411;52.716;6.696;2023-04-03T12:45:20;10.20;88.50
65692;DHT22;52411;52.716;6.696;2023-04-03T12:47:49;10.30;80.90
65692;DHT22;52411;52.716;6.696;2023-04-03T12:50:29;10.40;84.60
65692;DHT22;52411;52.716;6.696;2023-04-03T12:53:10;10.40;80.90
65692;DHT22;52411;52.716;6.696;2023-04-03T12:55:36;10.40;86.10
65692;DHT22;52411;52.716;6.696;2023-04-03T12:58:16;10.50;85.50
65692;DHT22;52411;52.716;6.696;2023-04-03T13:00:46;10.60;79.30
65692;DHT22;52411;52.716;6.696;2023-04-03T13:03:22;10.60;90.30
65692;DHT22;52411;52.716;6.696;2023-04-03T13:05:49;10.50;81.70
65692;DHT22;52411;52.716;6.696;2023-04-03T13:08:16;10.40;87.50
65692;DHT22;52411;52.716;6.696;2023-04-03T13:11:03;10.50;84.30
65692;DHT22;52411;52.716;6.696;2023-04-03T13:13:31;10.30;76.20
65692;DHT22;52411;52.716;6.696;2023-04-03T13:15:57;10.30;85.90
65692;DHT22;52411;52.716;6.696;2023-04-03T13:18:24;10.40;86.80
65692;DHT22;52411;52.716;6.696;2023-04-03T13:20:50;10.40;86.00
65692;DHT22;52411;52.716;6.696;2023-04-03T13:23:17;10.50;86.80
65692;DHT22;52411;52.716;6.696;2023-04-03T13:25:46;10.10;81.30
65692;DHT22;52411;52.716;6.696;2023-04-03T13:28:17;10.30;88.10
65692;DHT22;52411;52.716;6.696;2023-04-03T13:31:16;10.40;78.70
65692;DHT22;52411;52.716;6.696;2023-04-03T13:33:55;10.60;80.40
65692;DHT22;52411;52.716;6.696;2023-04-03T13:36:29;10.40;77.60
65692;DHT22;52411;52.716;6.696;2023-04-03T13:41:41;10.60;77.50
65692;DHT22;52411;52.716;6.696;2023-04-03T13:44:17;10.70;79.20
65692;DHT22;52411;52.716;6.696;2023-04-03T13:46:44;10.70;74.50
65692;DHT22;52411;52.716;6.696;2023-04-03T13:51:58;10.80;75.50
65692;DHT22;52411;52.716;6.696;2023-04-03T13:54:30;10.80;81.90
65692;DHT22;52411;52.716;6.696;2023-04-03T13:56:59;11.00;75.10
65692;DHT22;52411;52.716;6.696;2023-04-03T13:59:31;10.90;82.20
65692;DHT22;52411;52.716;6.696;2023-04-03T14:04:46;10.80;68.70
65692;DHT22;52411;52.716;6.696;2023-04-03T14:07:13;10.80;74.80
65692;DHT22;52411;52.716;6.696;2023-04-03T14:09:40;10.80;73.90
65692;DHT22;52411;52.716;6.696;2023-04-03T14:12:08;10.90;75.80
65692;DHT22;52411;52.716;6.696;2023-04-03T14:14:37;10.70;71.10
65692;DHT22;52411;52.716;6.696;2023-04-03T14:17:15;10.70;71.00
65692;DHT22;52411;52.716;6.696;2023-04-03T14:19:41;10.90;77.60
65692;DHT22;52411;52.716;6.696;2023-04-03T14:22:21;11.00;77.70
65692;DHT22;52411;52.716;6.696;2023-04-03T14:24:48;11.10;78.70
65692;DHT22;52411;52.716;6.696;2023-04-03T14:27:19;11.10;83.10
65692;DHT22;52411;52.716;6.696;2023-04-03T14:29:45;11.20;82.30
65692;DHT22;52411;52.716;6.696;2023-04-03T14:32:16;11.20;83.40
65692;DHT22;52411;52.716;6.696;2023-04-03T14:34:42;11.30;79.40
65692;DHT22;52411;52.716;6.696;2023-04-03T14:37:18;11.30;88.70
65692;DHT22;52411;52.716;6.696;2023-04-03T14:39:45;11.50;84.90
65692;DHT22;52411;52.716;6.696;2023-04-03T14:42:17;11.60;90.60
65692;DHT22;52411;52.716;6.696;2023-04-03T14:44:43;11.60;84.90
65692;DHT22;52411;52.716;6.696;2023-04-03T14:47:12;11.60;77.50
65692;DHT22;52411;52.716;6.696;2023-04-03T14:49:39;11.50;76.20
65692;DHT22;52411;52.716;6.696;2023-04-03T14:52:05;11.50;78.50
65692;DHT22;52411;52.716;6.696;2023-04-03T14:54:30;11.30;80.70
65692;DHT22;52411;52.716;6.696;2023-04-03T14:56:57;11.20;80.10
65692;DHT22;52411;52.716;6.696;2023-04-03T14:59:30;11.30;79.90
65692;DHT22;52411;52.716;6.696;2023-04-03T15:01:57;11.50;78.40
65692;DHT22;52411;52.716;6.696;2023-04-03T15:04:22;11.80;73.50
65692;DHT22;52411;52.716;6.696;2023-04-03T15:06:48;12.00;80.00
65692;DHT22;52411;52.716;6.696;2023-04-03T15:09:24;12.10;78.80
65692;DHT22;52411;52.716;6.696;2023-04-03T15:11:50;12.30;75.60
65692;DHT22;52411;52.716;6.696;2023-04-03T15:14:16;12.80;75.50
65692;DHT22;52411;52.716;6.696;2023-04-03T15:16:42;13.00;72.10
65692;DHT22;52411;52.716;6.696;2023-04-03T15:19:08;13.10;70.40
65692;DHT22;52411;52.716;6.696;2023-04-03T15:21:33;13.00;60.60
65692;DHT22;52411;52.716;6.696;2023-04-03T15:23:59;13.40;64.50
65692;DHT22;52411;52.716;6.696;2023-04-03T15:26:25;13.90;70.10
65692;DHT22;52411;52.716;6.696;2023-04-03T15:28:51;13.90;65.00
65692;DHT22;52411;52.716;6.696;2023-04-03T15:31:16;13.90;65.40
65692;DHT22;52411;52.716;6.696;2023-04-03T15:33:42;14.20;63.20
65692;DHT22;52411;52.716;6.696;2023-04-03T15:36:08;14.40;65.70
65692;DHT22;52411;52.716;6.696;2023-04-03T15:38:34;14.40;62.30
65692;DHT22;52411;52.716;6.696;2023-04-03T15:41:00;14.50;60.30
65692;DHT22;52411;52.716;6.696;2023-04-03T15:43:25;14.90;58.30
65692;DHT22;52411;52.716;6.696;2023-04-03T15:45:51;15.20;61.60
65692;DHT22;52411;52.716;6.696;2023-04-03T15:48:17;15.20;58.10
65692;DHT22;52411;52.716;6.696;2023-04-03T15:50:43;15.40;59.50
65692;DHT22;52411;52.716;6.696;2023-04-03T15:53:08;15.30;58.10
65692;DHT22;52411;52.716;6.696;2023-04-03T15:55:37;15.70;58.50
65692;DHT22;52411;52.716;6.696;2023-04-03T15:58:03;16.00;55.80
65692;DHT22;52411;52.716;6.696;2023-04-03T16:00:30;15.80;55.60
65692;DHT22;52411;52.716;6.696;2023-04-03T16:03:04;15.80;55.10
65692;DHT22;52411;52.716;6.696;2023-04-03T16:05:31;15.70;54.20
65692;DHT22;52411;52.716;6.696;2023-04-03T16:07:58;15.30;51.90
65692;DHT22;52411;52.716;6.696;2023-04-03T16:10:25;14.80;48.40
65692;DHT22;52411;52.716;6.696;2023-04-03T16:12:50;15.20;53.90
65692;DHT22;52411;52.716;6.696;2023-04-03T16:15:16;15.30;54.20
65692;DHT22;52411;52.716;6.696;2023-04-03T16:17:42;15.50;55.30
65692;DHT22;52411;52.716;6.696;2023-04-03T16:20:09;15.60;55.90
65692;DHT22;52411;52.716;6.696;2023-04-03T16:22:36;15.90;55.10
65692;DHT22;52411;52.716;6.696;2023-04-03T16:25:03;15.70;53.70
65692;DHT22;52411;52.716;6.696;2023-04-03T16:27:29;15.60;50.90
65692;DHT22;52411;52.716;6.696;2023-04-03T16:29:56;15.70;53.20
65692;DHT22;52411;52.716;6.696;2023-04-03T16:32:23;15.80;53.70
65692;DHT22;52411;52.716;6.696;2023-04-03T16:34:49;15.80;52.60
65692;DHT22;52411;52.716;6.696;2023-04-03T16:37:16;15.60;51.70
65692;DHT22;52411;52.716;6.696;2023-04-03T16:39:42;15.70;52.60
65692;DHT22;52411;52.716;6.696;2023-04-03T16:42:07;16.00;51.50
65692;DHT22;52411;52.716;6.696;2023-04-03T16:44:34;15.90;49.90
65692;DHT22;52411;52.716;6.696;2023-04-03T16:47:00;15.90;51.80
65692;DHT22;52411;52.716;6.696;2023-04-03T16:49:26;15.70;50.30
65692;DHT22;52411;52.716;6.696;2023-04-03T16:51:55;15.50;51.20
65692;DHT22;52411;52.716;6.696;2023-04-03T16:54:20;15.20;51.50
65692;DHT22;52411;52.716;6.696;2023-04-03T16:56:46;15.10;51.00
65692;DHT22;52411;52.716;6.696;2023-04-03T16:59:12;15.20;52.20
65692;DHT22;52411;52.716;6.696;2023-04-03T17:01:37;15.40;54.10
65692;DHT22;52411;52.716;6.696;2023-04-03T17:04:03;15.40;51.90
65692;DHT22;52411;52.716;6.696;2023-04-03T17:06:29;15.40;52.70
65692;DHT22;52411;52.716;6.696;2023-04-03T17:08:54;15.30;51.60